createdAt,value
2022-12-01T00:00:09.992Z,11.98
2022-12-01T00:05:11.813Z,13.90
2022-12-01T00:10:29.046Z,11.80
2022-12-01T00:15:34.615Z,11.68
2022-12-01T00:20:36.822Z,10.80
2022-12-01T00:25:40.723Z,10.85
2022-12-01T00:30:42.602Z,12.10
2022-12-01T00:35:44.387Z,8.73
2022-12-01T00:40:46.207Z,9.18
2022-12-01T00:45:48.385Z,9.55
2022-12-01T00:50:54.654Z,9.55
2022-12-01T00:55:57.449Z,10.13
2022-12-01T01:01:01.368Z,9.27
2022-12-01T01:06:12.298Z,11.00
2022-12-01T01:11:14.139Z,8.50
2022-12-01T01:16:18.810Z,10.15
2022-12-01T01:21:22.178Z,9.07
2022-12-01T01:26:30.732Z,7.97
2022-12-01T01:31:32.605Z,7.88
2022-12-01T01:36:34.685Z,8.93
2022-12-01T01:41:36.470Z,8.52
2022-12-01T01:46:38.253Z,9.43
2022-12-01T01:51:55.273Z,8.13
2022-12-01T01:56:59.947Z,8.13
2022-12-01T02:02:12.356Z,8.43
2022-12-01T02:07:18.362Z,9.57
2022-12-01T02:12:52.052Z,7.93
2022-12-01T02:18:32.345Z,7.20
2022-12-01T02:24:15.222Z,7.28
2022-12-01T02:29:53.291Z,6.85
2022-12-01T02:35:14.926Z,7.07
2022-12-01T02:40:35.291Z,6.80
2022-12-01T02:46:16.466Z,6.63
2022-12-01T02:51:28.963Z,7.45
2022-12-01T02:56:30.977Z,6.05
2022-12-01T03:01:46.390Z,7.25
2022-12-01T03:07:38.880Z,5.18
2022-12-01T03:13:00.190Z,6.82
2022-12-01T03:18:23.186Z,5.55
2022-12-01T03:23:28.700Z,6.55
2022-12-01T03:28:35.083Z,5.20
2022-12-01T03:33:41.180Z,7.00
2022-12-01T03:38:48.555Z,5.78
2022-12-01T03:43:57.574Z,7.70
2022-12-01T03:48:59.405Z,6.88
2022-12-01T03:54:33.855Z,6.30
2022-12-01T03:59:38.422Z,7.95
2022-12-01T04:04:40.204Z,6.80
2022-12-01T04:09:42.153Z,7.53
2022-12-01T04:14:43.930Z,6.40
2022-12-01T04:19:45.770Z,7.57
2022-12-01T04:24:47.616Z,5.18
2022-12-01T04:29:49.723Z,5.13
2022-12-01T04:34:51.670Z,5.05
2022-12-01T04:39:53.446Z,5.32
2022-12-01T04:44:55.210Z,5.32
2022-12-01T04:49:57.005Z,4.97
2022-12-01T04:54:58.794Z,5.10
2022-12-01T05:00:00.570Z,5.00
2022-12-01T05:05:02.407Z,3.90
2022-12-01T05:10:05.178Z,3.95
2022-12-01T05:15:07.994Z,3.33
2022-12-01T05:20:36.945Z,4.05
2022-12-01T05:25:39.027Z,5.60
2022-12-01T05:30:40.925Z,6.85
2022-12-01T05:35:42.829Z,17.25
2022-12-01T05:40:51.421Z,6.05
2022-12-01T05:45:55.374Z,5.78
2022-12-01T05:50:57.251Z,5.80
2022-12-01T05:55:59.086Z,5.07
2022-12-01T06:01:01.333Z,10.70
2022-12-01T06:06:03.193Z,4.97
2022-12-01T06:11:05.131Z,5.97
2022-12-01T06:16:07.475Z,24.88
2022-12-01T06:21:09.326Z,26.13
2022-12-01T06:26:11.089Z,40.75
2022-12-01T06:31:13.473Z,15.50
2022-12-01T06:36:15.287Z,11.48
2022-12-01T06:41:17.132Z,5.40
2022-12-01T06:46:19.011Z,5.35
2022-12-01T06:51:20.891Z,5.75
2022-12-01T06:56:23.376Z,5.95
2022-12-01T07:01:28.723Z,6.72
2022-12-01T07:06:31.324Z,5.15
2022-12-01T07:11:36.154Z,5.20
2022-12-01T07:16:38.092Z,4.72
2022-12-01T07:21:40.234Z,4.22
2022-12-01T07:26:42.670Z,4.70
2022-12-01T07:31:44.577Z,6.90
2022-12-01T07:36:46.443Z,25.05
2022-12-01T07:41:48.461Z,44.20
2022-12-01T07:46:50.436Z,24.42
2022-12-01T07:51:52.323Z,12.43
2022-12-01T07:56:54.545Z,4.68
2022-12-01T08:01:56.483Z,27.85
2022-12-01T08:06:58.428Z,19.65
2022-12-01T08:12:00.314Z,16.55
2022-12-01T08:17:02.207Z,9.13
2022-12-01T08:22:04.012Z,6.60
2022-12-01T08:27:05.818Z,6.15
2022-12-01T08:32:08.160Z,5.60
2022-12-01T08:37:10.210Z,5.30
2022-12-01T08:42:12.217Z,9.73
2022-12-01T08:47:17.323Z,11.95
2022-12-01T08:52:20.769Z,16.38
2022-12-01T08:57:22.607Z,15.95
2022-12-01T09:02:24.804Z,20.08
2022-12-01T09:07:27.095Z,19.55
2022-12-01T09:12:29.695Z,22.63
2022-12-01T09:17:31.573Z,25.90
2022-12-01T09:22:34.874Z,27.63
2022-12-01T09:27:36.643Z,25.65
2022-12-01T09:32:38.387Z,23.10
2022-12-01T09:37:40.193Z,25.88
2022-12-01T09:42:43.934Z,26.42
2022-12-01T09:47:46.720Z,25.40
2022-12-01T09:52:53.307Z,26.45
2022-12-01T09:57:58.378Z,24.58
2022-12-01T10:03:09.779Z,22.52
2022-12-01T10:08:16.739Z,23.33
2022-12-01T10:13:21.459Z,32.47
2022-12-01T10:18:58.638Z,32.20
2022-12-01T10:24:10.918Z,28.23
2022-12-01T10:29:26.199Z,30.30
2022-12-01T10:34:34.683Z,28.85
2022-12-01T10:39:46.406Z,28.15
2022-12-01T10:44:49.231Z,31.15
2022-12-01T10:49:51.715Z,29.73
2022-12-01T10:54:53.698Z,29.90
2022-12-01T11:00:02.719Z,28.95
2022-12-01T11:05:22.300Z,27.48
2022-12-01T11:10:29.021Z,29.27
2022-12-01T11:15:39.740Z,25.47
2022-12-01T11:20:41.787Z,27.80
2022-12-01T11:26:01.382Z,27.40
2022-12-01T11:31:07.520Z,19.70
2022-12-01T11:36:14.640Z,21.15
2022-12-01T11:41:44.212Z,22.20
2022-12-01T11:46:55.806Z,22.63
2022-12-01T11:52:36.441Z,25.48
2022-12-01T11:57:42.565Z,24.20
2022-12-01T12:03:03.236Z,23.83
2022-12-01T12:08:11.030Z,21.30
2022-12-01T12:18:23.751Z,22.75
2022-12-01T12:23:52.768Z,26.33
2022-12-01T12:29:31.364Z,28.20
2022-12-01T12:35:09.847Z,26.08
2022-12-01T12:40:31.080Z,26.42
2022-12-01T12:45:53.348Z,24.02
2022-12-01T12:51:16.203Z,26.73
2022-12-01T12:56:20.871Z,22.95
2022-12-01T13:01:40.808Z,27.52
2022-12-01T13:06:56.142Z,26.92
2022-12-01T13:12:06.379Z,29.63
2022-12-01T13:17:31.650Z,29.88
2022-12-01T13:22:35.824Z,28.58
2022-12-01T13:27:41.087Z,30.25
2022-12-01T13:32:43.162Z,32.13
2022-12-01T13:37:46.415Z,31.45
2022-12-01T13:42:55.759Z,34.10
2022-12-01T13:47:59.987Z,31.40
2022-12-01T13:53:20.358Z,30.13
2022-12-01T13:58:26.993Z,32.50
2022-12-01T14:03:28.918Z,31.80
2022-12-01T14:08:34.599Z,32.30
2022-12-01T14:14:04.632Z,28.02
2022-12-01T14:19:06.506Z,27.13
2022-12-01T14:24:21.592Z,34.45
2022-12-01T14:29:43.167Z,41.53
2022-12-01T14:34:49.670Z,40.05
2022-12-01T14:40:05.607Z,39.65
2022-12-01T14:45:11.887Z,43.47
2022-12-01T14:50:22.583Z,45.63
2022-12-01T14:55:41.556Z,48.58
2022-12-01T15:00:57.977Z,46.93
2022-12-01T15:05:59.981Z,40.80
2022-12-01T15:11:10.673Z,47.63
2022-12-01T15:16:19.560Z,50.20
2022-12-01T15:21:27.146Z,44.38
2022-12-01T15:26:32.033Z,57.17
2022-12-01T15:31:35.136Z,54.95
2022-12-01T15:36:38.143Z,47.60
2022-12-01T15:41:41.538Z,45.55
2022-12-01T15:46:44.454Z,51.63
2022-12-01T15:51:48.955Z,44.17
2022-12-01T15:56:56.142Z,53.40
2022-12-01T16:01:58.527Z,53.17
2022-12-01T16:07:09.274Z,43.42
2022-12-01T16:12:17.701Z,44.63
2022-12-01T16:17:19.515Z,45.30
2022-12-01T16:22:22.370Z,45.20
2022-12-01T16:27:27.275Z,43.67
2022-12-01T16:32:34.839Z,44.60
2022-12-01T16:37:36.643Z,40.75
2022-12-01T16:42:38.454Z,41.08
2022-12-01T16:47:41.108Z,42.65
2022-12-01T16:52:44.683Z,38.72
2022-12-01T16:57:47.278Z,42.58
2022-12-01T17:02:49.320Z,37.30
2022-12-01T17:07:51.986Z,31.42
2022-12-01T17:12:54.907Z,31.38
2022-12-01T17:17:56.727Z,48.80
2022-12-01T17:22:59.115Z,32.08
2022-12-01T17:28:00.958Z,35.28
2022-12-01T17:33:02.815Z,45.78
2022-12-01T17:38:04.844Z,43.97
2022-12-01T17:43:08.193Z,43.63
2022-12-01T17:48:10.922Z,69.00
2022-12-01T17:53:12.763Z,265.38
2022-12-01T17:58:14.620Z,46.60
2022-12-01T18:03:16.483Z,40.15
2022-12-01T18:08:18.314Z,35.30
2022-12-01T18:13:21.547Z,38.67
2022-12-01T18:18:24.615Z,47.47
2022-12-01T18:23:27.154Z,38.92
2022-12-01T18:28:28.962Z,40.83
2022-12-01T18:33:36.630Z,33.45
2022-12-01T18:38:38.650Z,38.58
2022-12-01T18:43:40.470Z,35.85
2022-12-01T18:48:46.838Z,36.33
2022-12-01T18:53:48.698Z,41.85
2022-12-01T18:58:58.422Z,37.88
2022-12-01T19:04:01.016Z,42.92
2022-12-01T19:09:05.159Z,36.20
2022-12-01T19:14:11.935Z,39.33
2022-12-01T19:19:14.131Z,39.95
2022-12-01T19:24:16.742Z,39.03
2022-12-01T19:29:18.703Z,39.78
2022-12-01T19:34:20.774Z,39.50
2022-12-01T19:39:23.214Z,40.88
2022-12-01T19:44:25.074Z,39.53
2022-12-01T19:49:27.039Z,40.13
2022-12-01T19:54:30.387Z,43.03
2022-12-01T19:59:32.163Z,34.55
2022-12-01T20:04:34.113Z,36.72
2022-12-01T20:09:36.092Z,36.13
2022-12-01T20:14:37.922Z,36.38
2022-12-01T20:19:39.770Z,34.97
2022-12-01T20:24:42.018Z,37.63
2022-12-01T20:29:43.848Z,40.00
2022-12-01T20:34:45.706Z,40.88
2022-12-01T20:39:47.654Z,39.25
2022-12-01T20:44:49.673Z,42.03
2022-12-01T20:49:55.519Z,46.20
2022-12-01T20:55:00.202Z,37.80
2022-12-01T21:00:02.133Z,39.33
2022-12-01T21:05:04.316Z,43.72
2022-12-01T21:10:07.170Z,41.00
2022-12-01T21:15:17.872Z,34.17
2022-12-01T21:20:28.076Z,43.25
2022-12-01T21:25:30.967Z,42.05
2022-12-01T21:30:33.830Z,41.35
2022-12-01T21:35:35.714Z,36.90
2022-12-01T21:40:37.579Z,46.38
2022-12-01T21:45:39.431Z,50.75
2022-12-01T21:50:41.402Z,47.90
2022-12-01T21:55:45.445Z,48.13
2022-12-01T22:00:47.283Z,41.05
2022-12-01T22:06:27.823Z,37.58
2022-12-01T22:11:19.878Z,35.85
2022-12-01T22:16:28.482Z,35.25
2022-12-01T22:21:37.041Z,37.97
2022-12-01T22:26:46.600Z,37.70
2022-12-01T22:31:48.506Z,38.13
2022-12-01T22:36:51.386Z,36.40
2022-12-01T22:42:00.075Z,31.23
2022-12-01T22:47:03.615Z,33.08
2022-12-01T22:52:14.046Z,36.15
2022-12-01T22:57:28.403Z,29.30
2022-12-01T23:02:34.197Z,30.50
2022-12-01T23:07:41.418Z,28.77
2022-12-01T23:12:44.792Z,29.67
2022-12-01T23:17:46.942Z,30.27
2022-12-01T23:22:48.842Z,34.15
2022-12-01T23:27:52.859Z,31.00
2022-12-01T23:33:13.383Z,34.40
2022-12-01T23:38:19.892Z,33.10
2022-12-01T23:43:25.206Z,36.42
2022-12-01T23:48:33.749Z,30.45
2022-12-01T23:53:35.595Z,33.30
2022-12-01T23:58:37.419Z,30.27
